sensor_id;sensor_type;location;lat;lon;timestamp;P1;durP1;ratioP1;P2;durP2;ratioP2
10277;SDS011;5184;51.376;7.148;2022-07-06T00:01:56;3.77;;;2.13;;
10277;SDS011;5184;51.376;7.148;2022-07-06T00:04:23;2.33;;;2.07;;
10277;SDS011;5184;51.376;7.148;2022-07-06T00:06:50;2.73;;;2.00;;
10277;SDS011;5184;51.376;7.148;2022-07-06T00:09:17;2.67;;;2.30;;
10277;SDS011;5184;51.376;7.148;2022-07-06T00:11:44;4.40;;;2.40;;
10277;SDS011;5184;51.376;7.148;2022-07-06T00:14:11;3.83;;;2.37;;
10277;SDS011;5184;51.376;7.148;2022-07-06T00:16:38;2.83;;;2.20;;
10277;SDS011;5184;51.376;7.148;2022-07-06T00:19:04;3.03;;;2.30;;
10277;SDS011;5184;51.376;7.148;2022-07-06T00:21:32;4.50;;;2.50;;
10277;SDS011;5184;51.376;7.148;2022-07-06T00:23:59;4.67;;;2.00;;
10277;SDS011;5184;51.376;7.148;2022-07-06T00:26:25;2.87;;;1.80;;
10277;SDS011;5184;51.376;7.148;2022-07-06T00:28:52;3.27;;;2.10;;
10277;SDS011;5184;51.376;7.148;2022-07-06T00:31:19;3.80;;;2.00;;
10277;SDS011;5184;51.376;7.148;2022-07-06T00:33:47;4.00;;;2.47;;
10277;SDS011;5184;51.376;7.148;2022-07-06T00:36:14;5.53;;;2.00;;
10277;SDS011;5184;51.376;7.148;2022-07-06T00:38:41;4.63;;;2.50;;
10277;SDS011;5184;51.376;7.148;2022-07-06T00:41:07;4.07;;;1.90;;
10277;SDS011;5184;51.376;7.148;2022-07-06T00:46:12;2.30;;;2.07;;
10277;SDS011;5184;51.376;7.148;2022-07-06T00:48:39;3.33;;;1.90;;
10277;SDS011;5184;51.376;7.148;2022-07-06T00:51:06;2.80;;;1.83;;
10277;SDS011;5184;51.376;7.148;2022-07-06T00:53:34;3.77;;;2.17;;
10277;SDS011;5184;51.376;7.148;2022-07-06T00:56:00;3.27;;;1.80;;
10277;SDS011;5184;51.376;7.148;2022-07-06T00:58:27;3.43;;;2.10;;
10277;SDS011;5184;51.376;7.148;2022-07-06T01:00:53;2.07;;;1.70;;
10277;SDS011;5184;51.376;7.148;2022-07-06T01:03:20;3.17;;;1.93;;
10277;SDS011;5184;51.376;7.148;2022-07-06T01:05:47;3.47;;;2.00;;
10277;SDS011;5184;51.376;7.148;2022-07-06T01:08:13;4.20;;;1.80;;
10277;SDS011;5184;51.376;7.148;2022-07-06T01:10:40;4.40;;;1.93;;
10277;SDS011;5184;51.376;7.148;2022-07-06T01:13:07;2.33;;;1.90;;
10277;SDS011;5184;51.376;7.148;2022-07-06T01:15:35;2.77;;;1.60;;
10277;SDS011;5184;51.376;7.148;2022-07-06T01:18:02;3.80;;;2.20;;
10277;SDS011;5184;51.376;7.148;2022-07-06T01:20:28;2.20;;;1.80;;
10277;SDS011;5184;51.376;7.148;2022-07-06T01:22:54;3.07;;;2.10;;
10277;SDS011;5184;51.376;7.148;2022-07-06T01:25:21;3.27;;;1.83;;
10277;SDS011;5184;51.376;7.148;2022-07-06T01:27:48;3.60;;;2.30;;
10277;SDS011;5184;51.376;7.148;2022-07-06T01:30:16;3.97;;;2.07;;
10277;SDS011;5184;51.376;7.148;2022-07-06T01:32:42;3.30;;;2.20;;
10277;SDS011;5184;51.376;7.148;2022-07-06T01:35:10;3.00;;;2.00;;
10277;SDS011;5184;51.376;7.148;2022-07-06T01:37:35;4.63;;;2.90;;
10277;SDS011;5184;51.376;7.148;2022-07-06T01:40:03;5.40;;;2.27;;
10277;SDS011;5184;51.376;7.148;2022-07-06T01:42:29;3.33;;;2.50;;
10277;SDS011;5184;51.376;7.148;2022-07-06T01:44:56;4.23;;;2.50;;
10277;SDS011;5184;51.376;7.148;2022-07-06T01:47:22;2.83;;;2.13;;
10277;SDS011;5184;51.376;7.148;2022-07-06T01:49:49;4.43;;;2.30;;
10277;SDS011;5184;51.376;7.148;2022-07-06T01:52:16;3.07;;;2.23;;
10277;SDS011;5184;51.376;7.148;2022-07-06T01:54:42;2.50;;;2.10;;
10277;SDS011;5184;51.376;7.148;2022-07-06T01:57:09;2.57;;;2.13;;
10277;SDS011;5184;51.376;7.148;2022-07-06T01:59:35;5.60;;;2.40;;
10277;SDS011;5184;51.376;7.148;2022-07-06T02:02:02;5.07;;;2.33;;
10277;SDS011;5184;51.376;7.148;2022-07-06T02:04:29;4.77;;;2.23;;
10277;SDS011;5184;51.376;7.148;2022-07-06T02:06:55;3.57;;;2.10;;
10277;SDS011;5184;51.376;7.148;2022-07-06T02:09:22;5.53;;;2.20;;
10277;SDS011;5184;51.376;7.148;2022-07-06T02:11:49;4.73;;;2.20;;
10277;SDS011;5184;51.376;7.148;2022-07-06T02:14:15;2.43;;;1.90;;
10277;SDS011;5184;51.376;7.148;2022-07-06T02:16:42;5.40;;;2.17;;
10277;SDS011;5184;51.376;7.148;2022-07-06T02:19:09;2.73;;;1.93;;
10277;SDS011;5184;51.376;7.148;2022-07-06T02:21:35;4.50;;;1.83;;
10277;SDS011;5184;51.376;7.148;2022-07-06T02:24:02;3.03;;;1.87;;
10277;SDS011;5184;51.376;7.148;2022-07-06T02:26:30;3.27;;;1.90;;
10277;SDS011;5184;51.376;7.148;2022-07-06T02:28:56;4.13;;;1.90;;
10277;SDS011;5184;51.376;7.148;2022-07-06T02:31:24;3.07;;;1.90;;
10277;SDS011;5184;51.376;7.148;2022-07-06T02:33:50;2.10;;;1.90;;
10277;SDS011;5184;51.376;7.148;2022-07-06T02:36:17;3.07;;;1.90;;
10277;SDS011;5184;51.376;7.148;2022-07-06T02:38:44;3.30;;;1.93;;
10277;SDS011;5184;51.376;7.148;2022-07-06T02:41:10;3.13;;;1.90;;
10277;SDS011;5184;51.376;7.148;2022-07-06T02:43:37;3.67;;;2.17;;
10277;SDS011;5184;51.376;7.148;2022-07-06T02:46:04;2.20;;;1.90;;
10277;SDS011;5184;51.376;7.148;2022-07-06T02:48:30;3.93;;;2.17;;
10277;SDS011;5184;51.376;7.148;2022-07-06T02:50:57;4.77;;;1.90;;
10277;SDS011;5184;51.376;7.148;2022-07-06T02:53:24;3.40;;;1.90;;
10277;SDS011;5184;51.376;7.148;2022-07-06T02:55:50;6.27;;;2.23;;
10277;SDS011;5184;51.376;7.148;2022-07-06T02:58:18;4.57;;;2.30;;
10277;SDS011;5184;51.376;7.148;2022-07-06T03:00:46;4.10;;;2.23;;
10277;SDS011;5184;51.376;7.148;2022-07-06T03:03:12;3.00;;;2.20;;
10277;SDS011;5184;51.376;7.148;2022-07-06T03:05:40;3.13;;;2.33;;
10277;SDS011;5184;51.376;7.148;2022-07-06T03:08:06;3.00;;;2.40;;
10277;SDS011;5184;51.376;7.148;2022-07-06T03:10:33;5.13;;;2.60;;
10277;SDS011;5184;51.376;7.148;2022-07-06T03:13:00;2.90;;;2.60;;
10277;SDS011;5184;51.376;7.148;2022-07-06T03:15:27;4.03;;;2.50;;
10277;SDS011;5184;51.376;7.148;2022-07-06T03:17:54;3.23;;;2.83;;
10277;SDS011;5184;51.376;7.148;2022-07-06T03:20:20;5.73;;;3.30;;
10277;SDS011;5184;51.376;7.148;2022-07-06T03:22:48;4.90;;;3.00;;
10277;SDS011;5184;51.376;7.148;2022-07-06T03:25:14;6.10;;;3.27;;
10277;SDS011;5184;51.376;7.148;2022-07-06T03:27:42;5.97;;;3.40;;
10277;SDS011;5184;51.376;7.148;2022-07-06T03:30:09;4.43;;;3.43;;
10277;SDS011;5184;51.376;7.148;2022-07-06T03:32:36;5.10;;;3.30;;
10277;SDS011;5184;51.376;7.148;2022-07-06T03:35:03;4.87;;;3.40;;
10277;SDS011;5184;51.376;7.148;2022-07-06T03:37:31;6.43;;;3.70;;
10277;SDS011;5184;51.376;7.148;2022-07-06T03:39:58;5.13;;;3.67;;
10277;SDS011;5184;51.376;7.148;2022-07-06T03:42:24;5.17;;;3.80;;
10277;SDS011;5184;51.376;7.148;2022-07-06T03:44:51;5.93;;;3.30;;
10277;SDS011;5184;51.376;7.148;2022-07-06T03:47:18;4.20;;;3.03;;
10277;SDS011;5184;51.376;7.148;2022-07-06T03:49:44;5.73;;;3.40;;
10277;SDS011;5184;51.376;7.148;2022-07-06T03:52:11;7.13;;;3.33;;
10277;SDS011;5184;51.376;7.148;2022-07-06T03:54:38;4.10;;;3.43;;
10277;SDS011;5184;51.376;7.148;2022-07-06T03:57:06;4.93;;;2.87;;
10277;SDS011;5184;51.376;7.148;2022-07-06T03:59:34;4.93;;;2.73;;
10277;SDS011;5184;51.376;7.148;2022-07-06T04:02:00;3.67;;;2.90;;
10277;SDS011;5184;51.376;7.148;2022-07-06T04:04:28;4.87;;;3.03;;
10277;SDS011;5184;51.376;7.148;2022-07-06T04:06:55;4.43;;;3.20;;
10277;SDS011;5184;51.376;7.148;2022-07-06T04:09:23;5.23;;;2.90;;
10277;SDS011;5184;51.376;7.148;2022-07-06T04:11:50;5.80;;;3.07;;
10277;SDS011;5184;51.376;7.148;2022-07-06T04:14:17;5.57;;;2.93;;
10277;SDS011;5184;51.376;7.148;2022-07-06T04:16:44;4.77;;;3.00;;
10277;SDS011;5184;51.376;7.148;2022-07-06T04:19:14;3.90;;;3.00;;
10277;SDS011;5184;51.376;7.148;2022-07-06T04:21:43;7.93;;;3.07;;
10277;SDS011;5184;51.376;7.148;2022-07-06T04:24:10;6.47;;;3.03;;
10277;SDS011;5184;51.376;7.148;2022-07-06T04:26:37;5.37;;;2.90;;
10277;SDS011;5184;51.376;7.148;2022-07-06T04:29:03;4.60;;;3.30;;
10277;SDS011;5184;51.376;7.148;2022-07-06T04:31:30;5.17;;;3.17;;
10277;SDS011;5184;51.376;7.148;2022-07-06T04:33:58;5.90;;;3.13;;
10277;SDS011;5184;51.376;7.148;2022-07-06T04:36:24;7.30;;;3.50;;
10277;SDS011;5184;51.376;7.148;2022-07-06T04:38:51;5.97;;;3.50;;
10277;SDS011;5184;51.376;7.148;2022-07-06T04:41:18;5.63;;;3.33;;
10277;SDS011;5184;51.376;7.148;2022-07-06T04:43:46;7.47;;;3.53;;
10277;SDS011;5184;51.376;7.148;2022-07-06T04:46:13;7.63;;;3.77;;
10277;SDS011;5184;51.376;7.148;2022-07-06T04:48:40;5.23;;;3.37;;
10277;SDS011;5184;51.376;7.148;2022-07-06T04:51:07;4.83;;;3.23;;
10277;SDS011;5184;51.376;7.148;2022-07-06T04:53:34;6.00;;;3.60;;
10277;SDS011;5184;51.376;7.148;2022-07-06T04:56:04;7.47;;;3.80;;
10277;SDS011;5184;51.376;7.148;2022-07-06T04:58:32;5.77;;;3.77;;
10277;SDS011;5184;51.376;7.148;2022-07-06T05:00:58;4.77;;;3.60;;
10277;SDS011;5184;51.376;7.148;2022-07-06T05:03:25;9.47;;;3.77;;
10277;SDS011;5184;51.376;7.148;2022-07-06T05:05:53;5.67;;;3.90;;
10277;SDS011;5184;51.376;7.148;2022-07-06T05:08:19;9.23;;;3.77;;
10277;SDS011;5184;51.376;7.148;2022-07-06T05:10:47;7.77;;;4.17;;
10277;SDS011;5184;51.376;7.148;2022-07-06T05:13:13;7.90;;;4.33;;
10277;SDS011;5184;51.376;7.148;2022-07-06T05:15:40;8.07;;;4.40;;
10277;SDS011;5184;51.376;7.148;2022-07-06T05:18:07;7.90;;;3.93;;
10277;SDS011;5184;51.376;7.148;2022-07-06T05:20:33;8.07;;;4.37;;
10277;SDS011;5184;51.376;7.148;2022-07-06T05:23:00;7.07;;;4.60;;
10277;SDS011;5184;51.376;7.148;2022-07-06T05:25:27;5.43;;;4.27;;
10277;SDS011;5184;51.376;7.148;2022-07-06T05:27:54;6.30;;;4.00;;
10277;SDS011;5184;51.376;7.148;2022-07-06T05:30:21;7.00;;;4.40;;
10277;SDS011;5184;51.376;7.148;2022-07-06T05:32:48;8.93;;;4.20;;
10277;SDS011;5184;51.376;7.148;2022-07-06T05:35:15;6.97;;;4.43;;
10277;SDS011;5184;51.376;7.148;2022-07-06T05:37:42;8.33;;;4.70;;
10277;SDS011;5184;51.376;7.148;2022-07-06T05:40:09;7.47;;;4.10;;
10277;SDS011;5184;51.376;7.148;2022-07-06T05:42:37;6.07;;;4.30;;
10277;SDS011;5184;51.376;7.148;2022-07-06T05:45:04;10.13;;;4.60;;
10277;SDS011;5184;51.376;7.148;2022-07-06T05:47:31;6.87;;;4.30;;
10277;SDS011;5184;51.376;7.148;2022-07-06T05:50:04;6.63;;;4.03;;
10277;SDS011;5184;51.376;7.148;2022-07-06T05:52:36;9.93;;;4.27;;
10277;SDS011;5184;51.376;7.148;2022-07-06T05:55:03;5.70;;;4.20;;
10277;SDS011;5184;51.376;7.148;2022-07-06T05:57:30;9.07;;;3.90;;
10277;SDS011;5184;51.376;7.148;2022-07-06T05:59:56;6.10;;;3.93;;
10277;SDS011;5184;51.376;7.148;2022-07-06T06:02:23;5.30;;;4.10;;
10277;SDS011;5184;51.376;7.148;2022-07-06T06:04:50;5.00;;;4.20;;
10277;SDS011;5184;51.376;7.148;2022-07-06T06:07:16;5.90;;;4.23;;
10277;SDS011;5184;51.376;7.148;2022-07-06T06:09:43;7.93;;;4.17;;
10277;SDS011;5184;51.376;7.148;2022-07-06T06:12:10;6.00;;;3.75;;
10277;SDS011;5184;51.376;7.148;2022-07-06T06:14:38;7.67;;;3.87;;
10277;SDS011;5184;51.376;7.148;2022-07-06T06:17:05;9.90;;;3.80;;
10277;SDS011;5184;51.376;7.148;2022-07-06T06:19:32;7.93;;;4.23;;
10277;SDS011;5184;51.376;7.148;2022-07-06T06:21:58;9.43;;;4.20;;
10277;SDS011;5184;51.376;7.148;2022-07-06T06:24:25;7.00;;;3.87;;
10277;SDS011;5184;51.376;7.148;2022-07-06T06:26:53;8.57;;;4.13;;
10277;SDS011;5184;51.376;7.148;2022-07-06T06:29:19;7.83;;;3.80;;
10277;SDS011;5184;51.376;7.148;2022-07-06T06:31:46;7.07;;;3.40;;
10277;SDS011;5184;51.376;7.148;2022-07-06T06:34:12;8.37;;;3.40;;
10277;SDS011;5184;51.376;7.148;2022-07-06T06:36:39;5.77;;;2.73;;
10277;SDS011;5184;51.376;7.148;2022-07-06T06:39:06;6.37;;;2.70;;
10277;SDS011;5184;51.376;7.148;2022-07-06T06:41:33;6.63;;;2.67;;
10277;SDS011;5184;51.376;7.148;2022-07-06T06:44:00;6.70;;;2.63;;
10277;SDS011;5184;51.376;7.148;2022-07-06T06:46:26;6.17;;;3.30;;
10277;SDS011;5184;51.376;7.148;2022-07-06T06:48:53;6.33;;;2.87;;
10277;SDS011;5184;51.376;7.148;2022-07-06T06:51:20;7.07;;;2.83;;
10277;SDS011;5184;51.376;7.148;2022-07-06T06:53:47;6.40;;;2.67;;
10277;SDS011;5184;51.376;7.148;2022-07-06T06:56:13;4.80;;;2.30;;
10277;SDS011;5184;51.376;7.148;2022-07-06T06:58:40;5.07;;;2.50;;
10277;SDS011;5184;51.376;7.148;2022-07-06T07:01:06;3.77;;;2.37;;
10277;SDS011;5184;51.376;7.148;2022-07-06T07:03:34;4.20;;;1.87;;
10277;SDS011;5184;51.376;7.148;2022-07-06T07:06:00;5.97;;;1.90;;
10277;SDS011;5184;51.376;7.148;2022-07-06T07:08:27;5.13;;;1.80;;
10277;SDS011;5184;51.376;7.148;2022-07-06T07:10:54;4.10;;;1.60;;
10277;SDS011;5184;51.376;7.148;2022-07-06T07:13:22;4.00;;;1.57;;
10277;SDS011;5184;51.376;7.148;2022-07-06T07:15:48;3.77;;;1.40;;
10277;SDS011;5184;51.376;7.148;2022-07-06T07:18:15;4.63;;;1.50;;
10277;SDS011;5184;51.376;7.148;2022-07-06T07:20:41;3.43;;;1.40;;
10277;SDS011;5184;51.376;7.148;2022-07-06T07:23:09;3.30;;;1.60;;
10277;SDS011;5184;51.376;7.148;2022-07-06T07:25:36;4.83;;;1.73;;
10277;SDS011;5184;51.376;7.148;2022-07-06T07:28:04;4.80;;;1.60;;
10277;SDS011;5184;51.376;7.148;2022-07-06T07:30:30;3.50;;;1.33;;
10277;SDS011;5184;51.376;7.148;2022-07-06T07:32:57;3.00;;;1.20;;
10277;SDS011;5184;51.376;7.148;2022-07-06T07:35:23;4.13;;;1.43;;
10277;SDS011;5184;51.376;7.148;2022-07-06T07:37:51;4.37;;;1.60;;
10277;SDS011;5184;51.376;7.148;2022-07-06T07:40:17;3.97;;;1.70;;
10277;SDS011;5184;51.376;7.148;2022-07-06T07:42:44;4.03;;;1.30;;
10277;SDS011;5184;51.376;7.148;2022-07-06T07:45:11;2.23;;;1.30;;
10277;SDS011;5184;51.376;7.148;2022-07-06T07:47:38;4.87;;;1.57;;
10277;SDS011;5184;51.376;7.148;2022-07-06T07:50:05;4.47;;;1.53;;
10277;SDS011;5184;51.376;7.148;2022-07-06T07:52:32;2.97;;;1.30;;
10277;SDS011;5184;51.376;7.148;2022-07-06T07:54:59;3.87;;;1.20;;
10277;SDS011;5184;51.376;7.148;2022-07-06T07:57:26;3.93;;;1.40;;
10277;SDS011;5184;51.376;7.148;2022-07-06T07:59:52;2.20;;;1.20;;
10277;SDS011;5184;51.376;7.148;2022-07-06T08:02:19;5.00;;;1.30;;
10277;SDS011;5184;51.376;7.148;2022-07-06T08:04:46;3.03;;;1.17;;
10277;SDS011;5184;51.376;7.148;2022-07-06T08:07:12;2.73;;;1.23;;
10277;SDS011;5184;51.376;7.148;2022-07-06T08:09:39;2.73;;;1.00;;
10277;SDS011;5184;51.376;7.148;2022-07-06T08:12:06;1.10;;;0.97;;
10277;SDS011;5184;51.376;7.148;2022-07-06T08:14:33;2.17;;;1.10;;
10277;SDS011;5184;51.376;7.148;2022-07-06T08:17:00;2.50;;;1.13;;
10277;SDS011;5184;51.376;7.148;2022-07-06T08:19:27;2.23;;;1.20;;
10277;SDS011;5184;51.376;7.148;2022-07-06T08:21:53;2.13;;;1.30;;
10277;SDS011;5184;51.376;7.148;2022-07-06T08:24:20;3.53;;;1.50;;
10277;SDS011;5184;51.376;7.148;2022-07-06T08:26:46;3.10;;;1.50;;
10277;SDS011;5184;51.376;7.148;2022-07-06T08:29:13;4.33;;;1.30;;
10277;SDS011;5184;51.376;7.148;2022-07-06T08:31:40;3.13;;;1.23;;
10277;SDS011;5184;51.376;7.148;2022-07-06T08:34:06;2.70;;;1.20;;
10277;SDS011;5184;51.376;7.148;2022-07-06T08:36:33;4.80;;;1.30;;
10277;SDS011;5184;51.376;7.148;2022-07-06T08:38:59;1.73;;;1.50;;
10277;SDS011;5184;51.376;7.148;2022-07-06T08:41:29;3.33;;;1.63;;
10277;SDS011;5184;51.376;7.148;2022-07-06T08:43:53;2.67;;;1.33;;
10277;SDS011;5184;51.376;7.148;2022-07-06T08:46:21;3.17;;;1.47;;
10277;SDS011;5184;51.376;7.148;2022-07-06T08:48:48;6.67;;;2.10;;
10277;SDS011;5184;51.376;7.148;2022-07-06T08:51:16;4.60;;;2.10;;
10277;SDS011;5184;51.376;7.148;2022-07-06T08:53:43;3.90;;;2.60;;
10277;SDS011;5184;51.376;7.148;2022-07-06T08:56:09;5.70;;;2.20;;
10277;SDS011;5184;51.376;7.148;2022-07-06T08:58:35;4.33;;;2.33;;
10277;SDS011;5184;51.376;7.148;2022-07-06T09:01:03;5.73;;;3.30;;
10277;SDS011;5184;51.376;7.148;2022-07-06T09:03:30;4.27;;;2.57;;
10277;SDS011;5184;51.376;7.148;2022-07-06T09:05:58;5.47;;;2.10;;
10277;SDS011;5184;51.376;7.148;2022-07-06T09:08:24;3.33;;;2.20;;
10277;SDS011;5184;51.376;7.148;2022-07-06T09:10:51;4.13;;;2.30;;
10277;SDS011;5184;51.376;7.148;2022-07-06T09:13:17;4.93;;;2.00;;
10277;SDS011;5184;51.376;7.148;2022-07-06T09:15:44;2.93;;;1.67;;
10277;SDS011;5184;51.376;7.148;2022-07-06T09:18:11;3.63;;;1.50;;
10277;SDS011;5184;51.376;7.148;2022-07-06T09:20:37;3.53;;;1.77;;
10277;SDS011;5184;51.376;7.148;2022-07-06T09:23:04;3.33;;;1.83;;
10277;SDS011;5184;51.376;7.148;2022-07-06T09:25:31;6.43;;;2.47;;
10277;SDS011;5184;51.376;7.148;2022-07-06T09:27:58;4.37;;;2.00;;
10277;SDS011;5184;51.376;7.148;2022-07-06T09:30:27;5.37;;;2.50;;
10277;SDS011;5184;51.376;7.148;2022-07-06T09:32:54;5.43;;;2.73;;
10277;SDS011;5184;51.376;7.148;2022-07-06T09:35:25;3.70;;;2.33;;
10277;SDS011;5184;51.376;7.148;2022-07-06T09:40:26;5.00;;;2.30;;
10277;SDS011;5184;51.376;7.148;2022-07-06T09:43:07;2.97;;;2.20;;
10277;SDS011;5184;51.376;7.148;2022-07-06T09:45:28;3.67;;;2.10;;
10277;SDS011;5184;51.376;7.148;2022-07-06T09:47:53;4.80;;;2.20;;
10277;SDS011;5184;51.376;7.148;2022-07-06T09:50:19;5.03;;;2.17;;
10277;SDS011;5184;51.376;7.148;2022-07-06T09:55:19;6.17;;;2.00;;
10277;SDS011;5184;51.376;7.148;2022-07-06T09:57:52;3.13;;;1.90;;
10277;SDS011;5184;51.376;7.148;2022-07-06T10:00:19;3.50;;;2.07;;
10277;SDS011;5184;51.376;7.148;2022-07-06T10:02:46;3.50;;;2.00;;
10277;SDS011;5184;51.376;7.148;2022-07-06T10:05:12;5.67;;;2.47;;
10277;SDS011;5184;51.376;7.148;2022-07-06T10:07:39;3.83;;;1.90;;
10277;SDS011;5184;51.376;7.148;2022-07-06T10:10:06;3.13;;;1.70;;
10277;SDS011;5184;51.376;7.148;2022-07-06T10:12:33;2.67;;;1.80;;
10277;SDS011;5184;51.376;7.148;2022-07-06T10:15:00;3.97;;;2.10;;
10277;SDS011;5184;51.376;7.148;2022-07-06T10:17:26;3.33;;;2.50;;
10277;SDS011;5184;51.376;7.148;2022-07-06T10:19:53;5.03;;;2.60;;
10277;SDS011;5184;51.376;7.148;2022-07-06T10:22:20;4.43;;;2.10;;
10277;SDS011;5184;51.376;7.148;2022-07-06T10:24:49;4.60;;;2.43;;
10277;SDS011;5184;51.376;7.148;2022-07-06T10:27:15;4.97;;;2.10;;
10277;SDS011;5184;51.376;7.148;2022-07-06T10:29:42;2.80;;;2.03;;
10277;SDS011;5184;51.376;7.148;2022-07-06T10:32:08;2.33;;;2.13;;
10277;SDS011;5184;51.376;7.148;2022-07-06T10:34:35;4.00;;;2.20;;
10277;SDS011;5184;51.376;7.148;2022-07-06T10:37:02;3.27;;;1.77;;
10277;SDS011;5184;51.376;7.148;2022-07-06T10:39:32;4.87;;;1.83;;
10277;SDS011;5184;51.376;7.148;2022-07-06T10:42:03;3.20;;;1.73;;
10277;SDS011;5184;51.376;7.148;2022-07-06T10:44:30;2.57;;;1.40;;
10277;SDS011;5184;51.376;7.148;2022-07-06T10:46:57;1.53;;;1.23;;
10277;SDS011;5184;51.376;7.148;2022-07-06T10:49:24;2.70;;;1.70;;
10277;SDS011;5184;51.376;7.148;2022-07-06T10:51:50;4.07;;;2.10;;
10277;SDS011;5184;51.376;7.148;2022-07-06T10:54:17;3.13;;;1.70;;
10277;SDS011;5184;51.376;7.148;2022-07-06T10:56:44;4.43;;;1.80;;
10277;SDS011;5184;51.376;7.148;2022-07-06T10:59:12;4.00;;;1.90;;
10277;SDS011;5184;51.376;7.148;2022-07-06T11:01:38;2.50;;;1.90;;
10277;SDS011;5184;51.376;7.148;2022-07-06T11:04:06;2.37;;;1.73;;
10277;SDS011;5184;51.376;7.148;2022-07-06T11:06:33;3.73;;;1.47;;
10277;SDS011;5184;51.376;7.148;2022-07-06T11:09:01;2.80;;;1.50;;
10277;SDS011;5184;51.376;7.148;2022-07-06T11:11:39;2.90;;;1.60;;
10277;SDS011;5184;51.376;7.148;2022-07-06T11:14:07;2.60;;;1.60;;
10277;SDS011;5184;51.376;7.148;2022-07-06T11:16:36;4.17;;;1.43;;
10277;SDS011;5184;51.376;7.148;2022-07-06T11:19:04;2.20;;;1.57;;
10277;SDS011;5184;51.376;7.148;2022-07-06T11:21:33;2.67;;;1.53;;
10277;SDS011;5184;51.376;7.148;2022-07-06T11:24:00;2.80;;;1.37;;
10277;SDS011;5184;51.376;7.148;2022-07-06T11:26:27;3.93;;;1.50;;
10277;SDS011;5184;51.376;7.148;2022-07-06T11:28:53;2.03;;;1.23;;
10277;SDS011;5184;51.376;7.148;2022-07-06T11:31:21;2.37;;;1.30;;
10277;SDS011;5184;51.376;7.148;2022-07-06T11:33:48;2.13;;;1.20;;
10277;SDS011;5184;51.376;7.148;2022-07-06T11:36:18;3.20;;;1.50;;
10277;SDS011;5184;51.376;7.148;2022-07-06T11:38:45;1.20;;;1.10;;
10277;SDS011;5184;51.376;7.148;2022-07-06T11:41:11;3.10;;;1.47;;
10277;SDS011;5184;51.376;7.148;2022-07-06T11:43:37;2.00;;;1.33;;
10277;SDS011;5184;51.376;7.148;2022-07-06T11:48:49;2.43;;;1.30;;
10277;SDS011;5184;51.376;7.148;2022-07-06T11:51:16;3.60;;;1.50;;
10277;SDS011;5184;51.376;7.148;2022-07-06T11:53:44;3.00;;;1.20;;
10277;SDS011;5184;51.376;7.148;2022-07-06T11:56:12;2.00;;;1.40;;
10277;SDS011;5184;51.376;7.148;2022-07-06T11:58:38;1.67;;;1.20;;
10277;SDS011;5184;51.376;7.148;2022-07-06T12:01:05;2.43;;;1.40;;
10277;SDS011;5184;51.376;7.148;2022-07-06T12:03:32;2.70;;;1.57;;
10277;SDS011;5184;51.376;7.148;2022-07-06T12:05:59;4.07;;;1.70;;
10277;SDS011;5184;51.376;7.148;2022-07-06T12:08:26;4.10;;;1.43;;
10277;SDS011;5184;51.376;7.148;2022-07-06T12:10:53;5.10;;;1.60;;
10277;SDS011;5184;51.376;7.148;2022-07-06T12:13:19;1.57;;;1.40;;
10277;SDS011;5184;51.376;7.148;2022-07-06T12:15:47;4.03;;;1.50;;
10277;SDS011;5184;51.376;7.148;2022-07-06T12:18:13;2.00;;;1.20;;
10277;SDS011;5184;51.376;7.148;2022-07-06T12:20:40;2.63;;;1.50;;
10277;SDS011;5184;51.376;7.148;2022-07-06T12:23:07;1.87;;;1.20;;
10277;SDS011;5184;51.376;7.148;2022-07-06T12:25:33;2.57;;;1.43;;
10277;SDS011;5184;51.376;7.148;2022-07-06T12:28:00;4.17;;;1.50;;
10277;SDS011;5184;51.376;7.148;2022-07-06T12:30:26;2.77;;;1.40;;
10277;SDS011;5184;51.376;7.148;2022-07-06T12:35:31;3.43;;;1.27;;
10277;SDS011;5184;51.376;7.148;2022-07-06T12:37:58;4.40;;;1.67;;
10277;SDS011;5184;51.376;7.148;2022-07-06T12:40:26;2.33;;;1.20;;
10277;SDS011;5184;51.376;7.148;2022-07-06T12:42:51;1.90;;;1.30;;
10277;SDS011;5184;51.376;7.148;2022-07-06T12:45:18;2.30;;;1.40;;
10277;SDS011;5184;51.376;7.148;2022-07-06T12:50:29;3.70;;;1.23;;
10277;SDS011;5184;51.376;7.148;2022-07-06T12:52:49;2.30;;;1.10;;
10277;SDS011;5184;51.376;7.148;2022-07-06T12:55:16;1.70;;;1.20;;
10277;SDS011;5184;51.376;7.148;2022-07-06T12:57:44;2.10;;;1.17;;
10277;SDS011;5184;51.376;7.148;2022-07-06T13:00:10;3.27;;;1.33;;
10277;SDS011;5184;51.376;7.148;2022-07-06T13:02:37;1.93;;;1.20;;
10277;SDS011;5184;51.376;7.148;2022-07-06T13:05:05;3.27;;;1.40;;
10277;SDS011;5184;51.376;7.148;2022-07-06T13:07:33;3.23;;;1.10;;
10277;SDS011;5184;51.376;7.148;2022-07-06T13:09:59;1.90;;;0.97;;
10277;SDS011;5184;51.376;7.148;2022-07-06T13:12:26;2.43;;;1.50;;
10277;SDS011;5184;51.376;7.148;2022-07-06T13:14:53;1.40;;;1.10;;
10277;SDS011;5184;51.376;7.148;2022-07-06T13:17:21;2.07;;;1.17;;
10277;SDS011;5184;51.376;7.148;2022-07-06T13:19:47;2.83;;;1.40;;
10277;SDS011;5184;51.376;7.148;2022-07-06T13:22:14;3.07;;;1.37;;
10277;SDS011;5184;51.376;7.148;2022-07-06T13:24:41;2.87;;;1.30;;
10277;SDS011;5184;51.376;7.148;2022-07-06T13:27:07;4.63;;;1.70;;
10277;SDS011;5184;51.376;7.148;2022-07-06T13:29:34;1.67;;;1.40;;
10277;SDS011;5184;51.376;7.148;2022-07-06T13:32:01;4.67;;;1.20;;
10277;SDS011;5184;51.376;7.148;2022-07-06T13:34:27;2.60;;;1.50;;
10277;SDS011;5184;51.376;7.148;2022-07-06T13:36:54;5.10;;;1.30;;
10277;SDS011;5184;51.376;7.148;2022-07-06T13:39:20;2.20;;;1.80;;
10277;SDS011;5184;51.376;7.148;2022-07-06T13:41:47;1.97;;;1.60;;
10277;SDS011;5184;51.376;7.148;2022-07-06T13:44:15;2.10;;;1.60;;
10277;SDS011;5184;51.376;7.148;2022-07-06T13:46:41;2.53;;;1.50;;
10277;SDS011;5184;51.376;7.148;2022-07-06T13:49:09;3.13;;;1.20;;
10277;SDS011;5184;51.376;7.148;2022-07-06T13:51:35;1.93;;;1.30;;
10277;SDS011;5184;51.376;7.148;2022-07-06T13:54:02;2.37;;;1.30;;
10277;SDS011;5184;51.376;7.148;2022-07-06T13:56:29;3.37;;;1.40;;
10277;SDS011;5184;51.376;7.148;2022-07-06T13:58:55;2.40;;;1.20;;
10277;SDS011;5184;51.376;7.148;2022-07-06T14:01:23;1.60;;;1.07;;
10277;SDS011;5184;51.376;7.148;2022-07-06T14:03:52;1.83;;;1.20;;
10277;SDS011;5184;51.376;7.148;2022-07-06T14:06:20;1.70;;;1.17;;
10277;SDS011;5184;51.376;7.148;2022-07-06T14:08:47;2.93;;;1.07;;
10277;SDS011;5184;51.376;7.148;2022-07-06T14:11:14;1.93;;;1.00;;
10277;SDS011;5184;51.376;7.148;2022-07-06T14:13:40;1.97;;;0.90;;
10277;SDS011;5184;51.376;7.148;2022-07-06T14:16:07;2.90;;;1.10;;
10277;SDS011;5184;51.376;7.148;2022-07-06T14:18:33;1.93;;;0.90;;
10277;SDS011;5184;51.376;7.148;2022-07-06T14:21:01;2.00;;;1.10;;
10277;SDS011;5184;51.376;7.148;2022-07-06T14:23:27;2.40;;;1.20;;
10277;SDS011;5184;51.376;7.148;2022-07-06T14:25:54;4.23;;;1.20;;
10277;SDS011;5184;51.376;7.148;2022-07-06T14:28:20;5.50;;;1.50;;
10277;SDS011;5184;51.376;7.148;2022-07-06T14:30:48;1.30;;;1.10;;
10277;SDS011;5184;51.376;7.148;2022-07-06T14:33:15;2.97;;;1.23;;
10277;SDS011;5184;51.376;7.148;2022-07-06T14:35:43;1.60;;;1.13;;
10277;SDS011;5184;51.376;7.148;2022-07-06T14:38:09;2.60;;;1.20;;
10277;SDS011;5184;51.376;7.148;2022-07-06T14:40:36;2.23;;;1.20;;
10277;SDS011;5184;51.376;7.148;2022-07-06T14:43:02;2.33;;;1.20;;
10277;SDS011;5184;51.376;7.148;2022-07-06T14:45:29;2.30;;;1.50;;
10277;SDS011;5184;51.376;7.148;2022-07-06T14:47:56;4.83;;;1.30;;
10277;SDS011;5184;51.376;7.148;2022-07-06T14:50:23;2.63;;;1.10;;
10277;SDS011;5184;51.376;7.148;2022-07-06T14:52:51;3.73;;;1.30;;
10277;SDS011;5184;51.376;7.148;2022-07-06T14:55:18;2.50;;;1.37;;
10277;SDS011;5184;51.376;7.148;2022-07-06T14:57:45;2.43;;;1.30;;
10277;SDS011;5184;51.376;7.148;2022-07-06T15:00:12;2.93;;;1.40;;
10277;SDS011;5184;51.376;7.148;2022-07-06T15:02:39;2.30;;;1.50;;
10277;SDS011;5184;51.376;7.148;2022-07-06T15:05:06;3.10;;;1.43;;
10277;SDS011;5184;51.376;7.148;2022-07-06T15:07:33;2.97;;;1.40;;
10277;SDS011;5184;51.376;7.148;2022-07-06T15:09:59;3.33;;;1.50;;
10277;SDS011;5184;51.376;7.148;2022-07-06T15:12:26;1.80;;;1.20;;
10277;SDS011;5184;51.376;7.148;2022-07-06T15:14:53;2.77;;;1.57;;